Depesze METAR z lotnisk oddalonych od Rybnika do 200 kilometrów

LKMT - Ostrava/Mosnov, Czech Republic
Distance from station: SSW 55km
Aktualizacja: Tue, 20/08/2019 20:00 CEST
Mostly Cloudy
Mostly Cloudy
 Wind from ESE
Wiatr: ESE 13 km/h
Temperatura: 23°C
Punkt rosy: 20°C
Wilgotnosc: 83%
Cisnienie: 1019 hPa
Chmury: Mostly Cloudy
Widocznosc: 10 km
Chmury-opis: Mostly Cloudy 1554 m
2019/08/20 18:00 LKMT 201800Z 11007KT 070V130 9999 BKN051TCU 23/20 Q1019 TEMPO 4500 TSRA SCT030CB
EPKT - Katowice/Pyrzowi, Poland
Distance from station: NE 58km
Aktualizacja: Tue, 20/08/2019 20:00 CEST
Few Clouds
Few Clouds
 Wind from ENE
Wiatr: ENE 11 km/h
Temperatura: 21°C
Punkt rosy: 17°C
Wilgotnosc: 78%
Cisnienie: 1020 hPa
Chmury: Few Clouds
Widocznosc: 10 km
Chmury-opis: Few Clouds 823 m
2019/08/20 18:00 EPKT 201800Z 06006KT 9999 FEW027 21/17 Q1020
 
EPKK - Krakow/Balice, Poland
Distance from station: E 91km
Aktualizacja: Tue, 20/08/2019 20:00 CEST
Clear
Clear
 Wind from ENE
Wiatr: ENE 15 km/h
Temperatura: 21°C
Punkt rosy: 20°C
Wilgotnosc: 94%
Cisnienie: 1020 hPa
Kondycja: Clear
Widocznosc: greater than 10 km
2019/08/20 18:00 EPKK 201800Z 06008KT CAVOK 21/20 Q1020
LZZI - Zilina, Slovakia
Distance from station: S 95km
Aktualizacja: Tue, 20/08/2019 20:00 CEST
Mostly Cloudy
Mostly Cloudy
 Wind from E
Wiatr: E 7 km/h
Temperatura: 24°C
Punkt rosy: 20°C
Wilgotnosc: 78%
Cisnienie: 1019 hPa
Chmury: Mostly Cloudy
Widocznosc: 10 km
Chmury-opis: Few Clouds 1829 m
Partly Cloudy 2438 m
Mostly Cloudy 2743 m
2019/08/20 18:00 LZZI 201800Z 09004KT 9999 FEW060 SCT080 BKN090 24/20 Q1019
 
LKKU - Kunovice, Czech Republic
Distance from station: SW 139km
Aktualizacja: Tue, 20/08/2019 16:00 CEST
NOT Current
Few Clouds
Few Clouds
 Wind from varies
Wiatr: varies 4 km/h
Temperatura: 29°C
Heat Index: 29°C
Punkt rosy: 17°C
Wilgotnosc: 48%
Cisnienie: 1018 hPa
Chmury: Few Clouds
Widocznosc: 10 km
Chmury-opis: Few Clouds 1372 m
2019/08/20 14:00 LKKU 201400Z VRB02KT 9999 FEW045 29/17 Q1018
EPWR - Wroclaw/Strachow, Poland
Distance from station: NW 163km
Aktualizacja: Tue, 20/08/2019 20:00 CEST
Light rain, Few clouds
Light rain, Few clouds
 Wind from NNW
Wiatr: NNW 9 km/h
Temperatura: 18°C
Punkt rosy: 16°C
Wilgotnosc: 88%
Cisnienie: 1021 hPa
Kondycja: Light Rain
Chmury: Few Clouds
Widocznosc: 10 km
Chmury-opis: Few Clouds 1494 m
2019/08/20 18:00 EPWR 201800Z 33005KT 9999 -RA FEW049 18/16 Q1021 RERA
 
LZSL - Sliac, Slovakia
Distance from station: SSE 168km
Aktualizacja: Tue, 20/08/2019 20:00 CEST
Clear
Clear
 Wind from WNW
Wiatr: WNW 6 km/h
Temperatura: 26°C
Punkt rosy: 20°C
Wilgotnosc: 70%
Cisnienie: 1019 hPa
Kondycja: Clear
Widocznosc: greater than 10 km
2019/08/20 18:00 LZSL 201800Z 29003KT 190V320 CAVOK 26/20 Q1019
LZTT - Poprad/Tatry, Slovakia
Distance from station: SE 168km
Aktualizacja: Tue, 20/08/2019 20:30 CEST
Few Clouds
Few Clouds
 Wind from W
Wiatr: W 7 km/h
Temperatura: 20°C
Punkt rosy: 18°C
Wilgotnosc: 88%
Cisnienie: 1022 hPa
Chmury: Few Clouds
Widocznosc: 10 km
Chmury-opis: Few Clouds 1615 m
2019/08/20 18:30 LZTT 201830Z 26004KT 9999 FEW053 20/18 Q1022
 
LKTB - Brno/Turany, Czech Republic
Distance from station: SW 170km
Aktualizacja: Tue, 20/08/2019 20:00 CEST
Clear
Clear
 Wind from varies
Wiatr: varies 4 km/h
Temperatura: 27°C
Heat Index: 28°C
Punkt rosy: 18°C
Wilgotnosc: 58%
Cisnienie: 1018 hPa
Kondycja: Clear
Widocznosc: greater than 10 km
2019/08/20 18:00 LKTB 201800Z VRB02KT CAVOK 27/18 Q1018 NOSIG
LZPP - Piestany, Slovakia
Distance from station: SSW 171km
Aktualizacja: Tue, 20/08/2019 20:00 CEST
Clear
Clear
 Wind from SE
Wiatr: SE 4 km/h
Temperatura: 28°C
Heat Index: 29°C
Punkt rosy: 18°C
Wilgotnosc: 55%
Cisnienie: 1017 hPa
Kondycja: Clear
Widocznosc: greater than 10 km
2019/08/20 18:00 LZPP 201800Z 13002KT CAVOK 28/18 Q1017
 
EPLL - Lodz/Lublinek, Poland
Distance from station: NNE 191km
Aktualizacja: Tue, 20/08/2019 20:00 CEST
Clear
Clear
 Wind from E
Wiatr: E 15 km/h
Temperatura: 24°C
Punkt rosy: 11°C
Wilgotnosc: 44%
Cisnienie: 1021 hPa
Kondycja: Clear
Widocznosc: greater than 10 km
2019/08/20 18:00 EPLL 201800Z 08008KT CAVOK 24/11 Q1021
LKPD - Pardubice, Czech Republic
Distance from station: W 200km
Aktualizacja: Tue, 20/08/2019 20:17 CEST
Light rain, Overcast
Light rain, Overcast
 Wind from NW
Wiatr: NW 11 km/h
Temperatura: 18°C
Punkt rosy: 17°C
Wilgotnosc: 94%
Cisnienie: 1019 hPa
Kondycja: Light Rain
Chmury: Overcast
Widocznosc: 10 km
Chmury-opis: Partly Cloudy 427 m
Mostly Cloudy 823 m
Overcast 1829 m
2019/08/20 18:17 LKPD 201817Z 31006KT 9999 -RA SCT014 BKN027 OVC060 18/17 Q1019 RMK BLU

Metar display script from Saratoga-Weather.org